Time;durP1;ratioP1;P1;durP2;ratioP2;P2;SDS_P1;SDS_P2;PMS_P1;PMS_P2;Temp;Humidity;BMP_temperature;BMP_pressure;BME280_temperature;BME280_humidity;BME280_pressure;Samples;Min_cycle;Max_cycle;Signal;HPM_P1;HPM_P2
2022/03/21 00:00:41;;;;;;;7.50;3.03;;;;;;;;;;5094404;28;20441;-72
2022/03/21 00:03:09;;;;;;;7.83;3.10;;;;;;;;;;5094709;28;20494;-69
2022/03/21 00:05:35;;;;;;;5.40;2.93;;;;;;;;;;5094799;28;20502;-72
2022/03/21 00:08:02;;;;;;;6.07;2.77;;;;;;;;;;5094755;28;20449;-68
2022/03/21 00:10:28;;;;;;;8.93;3.50;;;;;;;;;;5094089;28;20430;-71
2022/03/21 00:12:54;;;;;;;5.50;4.00;;;;;;;;;;5094610;28;20793;-72
2022/03/21 00:15:21;;;;;;;5.60;3.23;;;;;;;;;;5094701;28;20423;-71
2022/03/21 00:17:47;;;;;;;6.37;3.70;;;;;;;;;;5094745;28;20410;-68
2022/03/21 00:20:15;;;;;;;7.73;3.50;;;;;;;;;;5093948;28;20429;-72
2022/03/21 00:22:41;;;;;;;5.07;3.40;;;;;;;;;;5094396;28;20434;-69
2022/03/21 00:25:08;;;;;;;6.33;3.10;;;;;;;;;;5094547;28;20417;-72
2022/03/21 00:27:34;;;;;;;5.20;3.37;;;;;;;;;;5094271;28;20631;-72
2022/03/21 00:30:00;;;;;;;6.80;3.30;;;;;;;;;;5094021;28;20425;-69
2022/03/21 00:32:26;;;;;;;9.33;3.47;;;;;;;;;;5095147;28;20533;-70
2022/03/21 00:34:52;;;;;;;5.60;2.73;;;;;;;;;;5093734;28;20422;-72
2022/03/21 00:37:19;;;;;;;7.70;3.37;;;;;;;;;;5093973;28;20415;-69
2022/03/21 00:39:45;;;;;;;4.10;3.17;;;;;;;;;;5093597;28;20505;-70
2022/03/21 00:42:11;;;;;;;7.87;3.10;;;;;;;;;;5094342;28;20430;-71
2022/03/21 00:44:38;;;;;;;5.67;3.20;;;;;;;;;;5094039;28;20410;-68
2022/03/21 00:47:04;;;;;;;4.70;3.00;;;;;;;;;;5095207;28;20904;-70
2022/03/21 00:49:30;;;;;;;5.40;2.80;;;;;;;;;;5093254;28;20538;-71
2022/03/21 00:51:56;;;;;;;5.77;3.10;;;;;;;;;;5093982;28;20430;-71
2022/03/21 00:54:22;;;;;;;4.93;3.40;;;;;;;;;;5095281;28;20420;-71
2022/03/21 00:56:48;;;;;;;10.03;3.90;;;;;;;;;;5093997;28;20410;-69
2022/03/21 00:59:14;;;;;;;4.60;3.30;;;;;;;;;;5093307;28;20429;-74
2022/03/21 01:01:40;;;;;;;6.20;3.63;;;;;;;;;;5093422;28;20457;-70
2022/03/21 01:04:06;;;;;;;4.00;3.13;;;;;;;;;;5094033;28;20828;-71
2022/03/21 01:06:32;;;;;;;7.20;2.97;;;;;;;;;;5093818;28;20770;-73
2022/03/21 01:08:58;;;;;;;6.17;4.07;;;;;;;;;;5093283;28;20851;-70
2022/03/21 01:11:24;;;;;;;6.77;3.13;;;;;;;;;;5093587;28;20442;-67
2022/03/21 01:13:51;;;;;;;11.00;3.63;;;;;;;;;;5093399;28;20418;-69
2022/03/21 01:16:17;;;;;;;5.97;3.37;;;;;;;;;;5093843;28;20492;-67
2022/03/21 01:18:46;;;;;;;7.17;3.40;;;;;;;;;;5093156;28;20414;-71
2022/03/21 01:21:13;;;;;;;5.93;3.63;;;;;;;;;;5093084;28;20438;-72
2022/03/21 01:23:39;;;;;;;5.67;3.53;;;;;;;;;;5094093;28;20754;-73
2022/03/21 01:26:05;;;;;;;6.67;4.00;;;;;;;;;;5093283;28;20410;-70
2022/03/21 01:28:32;;;;;;;5.30;3.33;;;;;;;;;;5092884;28;21072;-72
2022/03/21 01:30:58;;;;;;;5.13;3.10;;;;;;;;;;5093041;28;20783;-70
2022/03/21 01:33:24;;;;;;;5.30;3.73;;;;;;;;;;5093135;28;20410;-73
2022/03/21 01:35:50;;;;;;;6.03;3.40;;;;;;;;;;5093115;28;20422;-71
2022/03/21 01:38:16;;;;;;;7.30;3.33;;;;;;;;;;5093034;28;20436;-73
2022/03/21 01:40:42;;;;;;;7.30;3.20;;;;;;;;;;5092661;28;20500;-74
2022/03/21 01:43:12;;;;;;;7.50;3.90;;;;;;;;;;5092947;28;20921;-70
2022/03/21 01:45:39;;;;;;;10.40;3.70;;;;;;;;;;5092467;28;20520;-71
2022/03/21 01:48:05;;;;;;;6.00;3.17;;;;;;;;;;5092959;28;20464;-70
2022/03/21 01:50:31;;;;;;;6.87;4.10;;;;;;;;;;5092216;28;20425;-71
2022/03/21 01:55:43;;;;;;;4.17;2.83;;;;;;;;;;5092317;28;20797;-71
2022/03/21 01:55:47;;;;;;;5.97;3.63;;;;;;;;;;5093734;28;20414;-71
2022/03/21 01:58:14;;;;;;;5.90;3.80;;;;;;;;;;5092644;28;20656;-69
2022/03/21 02:00:43;;;;;;;5.80;3.63;;;;;;;;;;5092073;28;20454;-72
2022/03/21 02:03:09;;;;;;;9.90;3.93;;;;;;;;;;5092754;28;20778;-69
2022/03/21 02:05:37;;;;;;;6.33;4.00;;;;;;;;;;5092304;28;20418;-71
2022/03/21 02:08:03;;;;;;;6.90;3.30;;;;;;;;;;5092609;28;20453;-72
2022/03/21 02:10:29;;;;;;;4.90;3.27;;;;;;;;;;5091904;28;20525;-72
2022/03/21 02:12:55;;;;;;;5.80;3.87;;;;;;;;;;5092604;28;20784;-68
2022/03/21 02:15:21;;;;;;;5.93;3.90;;;;;;;;;;5092308;28;20417;-68
2022/03/21 02:17:48;;;;;;;8.60;4.17;;;;;;;;;;5092287;28;20418;-68
2022/03/21 02:20:18;;;;;;;4.93;3.70;;;;;;;;;;5091569;28;20418;-69
2022/03/21 02:22:49;;;;;;;6.60;3.77;;;;;;;;;;5092431;28;20412;-67
2022/03/21 02:25:27;;;;;;;6.27;4.00;;;;;;;;;;5091497;28;20421;-68
2022/03/21 02:27:56;;;;;;;6.23;3.70;;;;;;;;;;5091677;28;20544;-70
2022/03/21 02:30:22;;;;;;;5.80;4.20;;;;;;;;;;5091546;28;20425;-71
2022/03/21 02:32:49;;;;;;;5.57;3.07;;;;;;;;;;5092061;28;20414;-70
2022/03/21 02:35:16;;;;;;;5.27;3.80;;;;;;;;;;5091832;28;20921;-70
2022/03/21 02:37:44;;;;;;;5.00;3.70;;;;;;;;;;5091537;28;20421;-69
2022/03/21 02:40:10;;;;;;;5.37;3.30;;;;;;;;;;5091422;28;20836;-70
2022/03/21 02:42:36;;;;;;;6.80;3.97;;;;;;;;;;5091539;28;20524;-72
2022/03/21 02:45:02;;;;;;;5.53;3.57;;;;;;;;;;5091567;28;20450;-71
2022/03/21 02:47:28;;;;;;;5.97;3.53;;;;;;;;;;5091817;28;20467;-70
2022/03/21 02:49:55;;;;;;;12.10;4.20;;;;;;;;;;5091039;28;20513;-69
2022/03/21 02:52:22;;;;;;;6.80;3.70;;;;;;;;;;5091715;28;20426;-68
2022/03/21 02:54:48;;;;;;;4.73;3.00;;;;;;;;;;5091647;28;20445;-71
2022/03/21 02:57:14;;;;;;;6.73;4.27;;;;;;;;;;5090758;28;20472;-73
2022/03/21 02:59:40;;;;;;;7.63;4.30;;;;;;;;;;5091247;28;20508;-72
2022/03/21 03:02:07;;;;;;;5.87;3.70;;;;;;;;;;5091296;28;20449;-71
2022/03/21 03:04:32;;;;;;;5.93;3.63;;;20.40;42.60;;;;;;5091188;28;20422;-69
2022/03/21 03:06:58;;;;;;;7.30;4.20;;;20.40;43.60;;;;;;5091341;28;20424;-68
2022/03/21 03:09:24;;;;;;;6.80;3.97;;;20.40;42.60;;;;;;5090810;28;20605;-70
2022/03/21 03:11:50;;;;;;;5.77;3.70;;;20.50;43.00;;;;;;5091619;28;20196;-69
2022/03/21 03:14:15;;;;;;;6.00;4.50;;;20.50;42.70;;;;;;5091526;28;20643;-68
2022/03/21 03:16:41;;;;;;;6.60;3.90;;;20.40;42.50;;;;;;5091777;28;20410;-68
2022/03/21 03:19:07;;;;;;;5.87;3.53;;;20.50;42.50;;;;;;5091081;28;20187;-68
2022/03/21 03:21:51;;;;;;;5.67;4.03;;;20.50;42.30;;;;;;5091206;28;20603;-70
2022/03/21 03:24:19;;;;;;;5.27;3.67;;;20.40;42.50;;;;;;5091483;28;20180;-69
2022/03/21 03:26:45;;;;;;;7.40;4.50;;;20.40;42.50;;;;;;5091204;28;20498;-69
2022/03/21 03:29:10;;;;;;;5.90;4.07;;;20.50;42.30;;;;;;5092103;28;20957;-69
2022/03/21 03:31:36;;;;;;;6.30;4.30;;;20.40;41.90;;;;;;5091389;28;20203;-68
2022/03/21 03:34:03;;;;;;;5.77;3.90;;;20.40;42.20;;;;;;5091395;28;20207;-68
2022/03/21 03:36:29;;;;;;;6.10;3.73;;;20.40;42.40;;;;;;5091178;28;20245;-68
2022/03/21 03:38:55;;;;;;;8.80;3.80;;;20.50;42.20;;;;;;5090092;28;20817;-71
2022/03/21 03:41:20;;;;;;;7.67;4.10;;;20.40;42.40;;;;;;5091376;28;20227;-69
2022/03/21 03:43:49;;;;;;;9.50;4.20;;;20.40;42.30;;;;;;5091069;28;20206;-68
2022/03/21 03:46:17;;;;;;;6.30;4.10;;;20.40;42.20;;;;;;5091004;28;20186;-68
2022/03/21 03:48:43;;;;;;;6.17;4.07;;;20.40;42.40;;;;;;5090665;28;20468;-71
2022/03/21 03:51:12;;;;;;;6.40;4.13;;;20.40;42.50;;;;;;5091264;28;20438;-72
2022/03/21 03:53:39;;;;;;;5.77;3.83;;;20.40;42.70;;;;;;5092266;28;20512;-69
2022/03/21 03:56:08;;;;;;;5.47;3.40;;;20.40;42.70;;;;;;5092682;28;20414;-68
2022/03/21 03:58:36;;;;;;;7.07;3.80;;;20.40;42.60;;;;;;5090858;28;20494;-70
2022/03/21 04:01:04;;;;;;;6.13;3.70;;;20.40;42.60;;;;;;5076175;28;20513;-71
2022/03/21 04:03:45;;;;;;;6.93;4.30;;;20.40;42.70;;;;;;5071271;28;20483;-70
2022/03/21 04:06:22;;;;;;;8.30;4.60;;;20.40;42.60;;;;;;5089076;28;20450;-69
2022/03/21 04:08:50;;;;;;;6.07;4.03;;;20.40;42.30;;;;;;5076055;28;20460;-69
2022/03/21 04:11:16;;;;;;;7.10;4.00;;;20.30;42.50;;;;;;5094536;28;20437;-67
2022/03/21 04:13:42;;;;;;;8.23;4.50;;;20.40;43.00;;;;;;5094558;28;20410;-68
2022/03/21 04:16:09;;;;;;;6.10;3.63;;;20.40;43.30;;;;;;5094889;28;20172;-71
2022/03/21 04:18:36;;;;;;;6.47;3.80;;;20.40;43.30;;;;;;5094286;28;20933;-67
2022/03/21 04:21:02;;;;;;;7.33;3.57;;;20.40;43.10;;;;;;5094178;28;20441;-68
2022/03/21 04:23:28;;;;;;;7.60;4.00;;;20.40;43.20;;;;;;5094213;28;20426;-68
2022/03/21 04:25:54;;;;;;;6.40;4.30;;;20.30;43.00;;;;;;5094344;28;20829;-70
2022/03/21 04:28:20;;;;;;;6.30;3.97;;;20.30;42.80;;;;;;5093676;28;20211;-70
2022/03/21 04:30:46;;;;;;;6.97;4.03;;;20.30;42.80;;;;;;5093803;28;20219;-70
2022/03/21 04:33:14;;;;;;;7.80;4.87;;;20.30;42.90;;;;;;5094225;28;20823;-68
2022/03/21 04:35:41;;;;;;;7.13;4.23;;;20.30;42.90;;;;;;5094192;28;20179;-67
2022/03/21 04:38:16;;;;;;;6.47;4.10;;;20.30;42.90;;;;;;5094236;28;20429;-67
2022/03/21 04:40:51;;;;;;;6.37;4.00;;;20.30;42.70;;;;;;5093587;28;20490;-71
2022/03/21 04:43:18;;;;;;;6.47;3.80;;;20.30;42.70;;;;;;5093912;28;20417;-68
2022/03/21 04:45:45;;;;;;;6.30;3.93;;;20.30;42.60;;;;;;5094366;28;20464;-70
2022/03/21 04:48:11;;;;;;;6.03;4.20;;;20.30;42.80;;;;;;5093829;28;20968;-67
2022/03/21 04:50:37;;;;;;;7.50;4.10;;;20.30;42.90;;;;;;5091138;28;20438;-68
2022/03/21 04:53:04;;;;;;;6.90;4.23;;;20.30;42.70;;;;;;5093772;28;20513;-68
2022/03/21 04:55:30;;;;;;;5.60;4.53;;;20.30;43.20;;;;;;5093818;28;20909;-68
2022/03/21 04:57:56;;;;;;;8.30;4.93;;;20.20;43.60;;;;;;5093880;28;20595;-70
2022/03/21 05:00:22;;;;;;;7.47;4.73;;;20.20;43.20;;;;;;5093079;28;20471;-70
2022/03/21 05:02:47;;;;;;;19.00;5.23;;;20.20;42.60;;;;;;5093783;28;20828;-69
2022/03/21 05:05:13;;;;;;;13.50;4.50;;;20.30;42.90;;;;;;5093892;28;20187;-71
2022/03/21 05:07:45;;;;;;;8.30;4.63;;;20.30;42.30;;;;;;5093734;28;20231;-74
2022/03/21 05:10:12;;;;;;;11.60;5.30;;;20.30;42.70;;;;;;5093007;28;20452;-70
2022/03/21 05:12:38;;;;;;;13.37;4.43;;;20.30;42.40;;;;;;5093405;28;20476;-68
2022/03/21 05:15:06;;;;;;;8.60;5.10;;;20.30;42.50;;;;;;5094659;28;20421;-72
2022/03/21 05:17:33;;;;;;;7.30;4.70;;;20.30;42.50;;;;;;5093752;28;20422;-72
2022/03/21 05:19:59;;;;;;;7.77;4.40;;;20.30;42.40;;;;;;5092022;28;20517;-67
2022/03/21 05:22:25;;;;;;;13.23;5.73;;;20.30;42.60;;;;;;5093335;28;20516;-68
2022/03/21 05:35:55;;;;;;;7.07;4.03;;;20.40;43.80;;;;;;5094647;28;20421;-72
2022/03/21 05:38:31;;;;;;;6.30;4.00;;;20.40;43.90;;;;;;5092950;28;20835;-68
2022/03/21 05:41:03;;;;;;;8.33;4.53;;;20.40;42.30;;;;;;5093162;28;20529;-70
2022/03/21 05:43:29;;;;;;;6.23;4.40;;;20.40;42.70;;;;;;5093370;28;20410;-71
2022/03/21 05:45:55;;;;;;;6.70;4.30;;;20.40;41.90;;;;;;5093066;28;20804;-68
2022/03/21 05:51:06;;;;;;;9.37;4.60;;;20.30;42.10;;;;;;5094540;28;20491;-71
2022/03/21 05:53:32;;;;;;;30.33;4.90;;;20.30;41.50;;;;;;5091621;28;20938;-70
2022/03/21 05:56:00;;;;;;;8.40;4.70;;;20.40;41.60;;;;;;5090606;28;20426;-70
2022/03/21 05:58:27;;;;;;;9.33;4.17;;;20.30;42.00;;;;;;5090265;28;20176;-71
2022/03/21 06:00:53;;;;;;;6.10;4.30;;;20.30;41.80;;;;;;5078511;28;20438;-69
2022/03/21 06:03:19;;;;;;;13.23;4.63;;;20.30;41.90;;;;;;5079688;28;20934;-71
2022/03/21 06:05:45;;;;;;;8.90;4.47;;;20.40;41.80;;;;;;5091866;28;20456;-71
2022/03/21 06:08:11;;;;;;;8.83;5.40;;;20.30;41.80;;;;;;5092581;28;20217;-71
2022/03/21 06:10:37;;;;;;;9.77;4.90;;;20.30;42.10;;;;;;5071934;28;20427;-72
2022/03/21 06:13:06;;;;;;;8.30;4.63;;;20.40;41.90;;;;;;5079319;28;20198;-73
2022/03/21 06:15:36;;;;;;;9.30;4.73;;;20.40;41.80;;;;;;5091632;28;20188;-69
2022/03/21 06:18:07;;;;;;;7.73;5.00;;;20.30;41.70;;;;;;5089167;28;20488;-71
2022/03/21 06:20:33;;;;;;;9.33;5.00;;;20.30;41.70;;;;;;5089619;28;20450;-70
2022/03/21 06:22:59;;;;;;;16.63;5.20;;;20.30;41.90;;;;;;5090616;28;20973;-70
2022/03/21 06:25:24;;;;;;;10.80;5.63;;;20.30;41.80;;;;;;5088637;28;20184;-68
2022/03/21 06:27:50;;;;;;;9.83;5.63;;;20.30;41.60;;;;;;5091986;28;20711;-67
2022/03/21 06:30:16;;;;;;;13.47;5.77;;;20.30;41.70;;;;;;5081695;28;20168;-70
2022/03/21 06:32:41;;;;;;;9.70;6.13;;;20.30;41.60;;;;;;5088799;28;20191;-67
2022/03/21 06:35:11;;;;;;;9.30;6.60;;;20.40;41.60;;;;;;5092193;28;20252;-71
2022/03/21 06:37:37;;;;;;;19.80;6.70;;;20.30;41.60;;;;;;5091351;28;20528;-70
2022/03/21 06:40:04;;;;;;;9.73;5.30;;;20.40;41.60;;;;;;5091793;28;20864;-70
2022/03/21 06:42:30;;;;;;;10.73;6.03;;;20.40;41.60;;;;;;5091881;28;20433;-68
2022/03/21 06:44:55;;;;;;;13.13;6.67;;;20.40;41.40;;;;;;5092037;28;20405;-71
2022/03/21 06:47:21;;;;;;;9.20;6.20;;;20.50;41.50;;;;;;5092075;28;20192;-69
2022/03/21 06:49:48;;;;;;;10.80;6.50;;;20.50;41.30;;;;;;5091687;28;20172;-70
2022/03/21 06:52:14;;;;;;;14.53;6.60;;;20.50;41.30;;;;;;5092019;28;20433;-68
2022/03/21 06:54:42;;;;;;;9.73;6.33;;;20.50;41.20;;;;;;5091987;28;20516;-67
2022/03/21 06:57:09;;;;;;;10.80;6.63;;;20.50;41.30;;;;;;5090566;28;20898;-72
2022/03/21 06:59:35;;;;;;;12.30;7.47;;;20.50;40.50;;;;;;5091335;28;20902;-69
2022/03/21 07:02:00;;;;;;;12.33;5.50;;;20.50;39.50;;;;;;5091678;28;20464;-72
2022/03/21 07:04:26;;;;;;;15.30;6.13;;;20.60;39.00;;;;;;5091716;28;20167;-68
2022/03/21 07:06:53;;;;;;;9.17;5.00;;;20.60;39.30;;;;;;5091828;28;20254;-68
2022/03/21 07:09:19;;;;;;;17.00;4.97;;;20.70;39.60;;;;;;5092629;28;20507;-68
2022/03/21 07:11:45;;;;;;;11.77;4.83;;;20.70;39.70;;;;;;5091575;28;20425;-70
2022/03/21 07:14:12;;;;;;;8.53;5.17;;;20.80;39.40;;;;;;5091724;28;20466;-70
2022/03/21 07:16:38;;;;;;;9.93;4.90;;;20.80;39.50;;;;;;5091695;28;20410;-72
2022/03/21 07:19:03;;;;;;;7.73;5.30;;;20.90;39.80;;;;;;5091203;28;20420;-71
2022/03/21 07:21:29;;;;;;;7.30;4.67;;;20.90;39.40;;;;;;5089719;28;20973;-71
2022/03/21 07:23:55;;;;;;;12.83;5.10;;;20.90;39.30;;;;;;5090057;28;20244;-70
2022/03/21 07:26:20;;;;;;;21.07;4.83;;;21.00;39.30;;;;;;5089850;28;20182;-68
2022/03/21 07:28:46;;;;;;;10.93;4.70;;;21.10;39.00;;;;;;5089672;28;20210;-72
2022/03/21 07:31:13;;;;;;;10.27;5.10;;;21.10;38.70;;;;;;5089417;28;20188;-70
2022/03/21 07:33:40;;;;;;;8.27;5.00;;;21.20;39.00;;;;;;5090039;28;20175;-68
2022/03/21 07:36:06;;;;;;;7.43;4.20;;;21.30;40.00;;;;;;5089830;28;20412;-70
2022/03/21 07:38:32;;;;;;;10.50;4.50;;;21.40;39.10;;;;;;5089964;28;20809;-69
2022/03/21 07:40:59;;;;;;;7.27;4.40;;;21.40;39.00;;;;;;5089914;28;20934;-70
2022/03/21 07:43:25;;;;;;;10.93;4.30;;;21.50;39.20;;;;;;5090605;28;20179;-68
2022/03/21 07:48:35;;;;;;;8.40;4.67;;;21.50;39.60;;;;;;5094712;28;20868;-69
2022/03/21 07:51:04;;;;;;;10.57;5.10;;;21.60;39.60;;;;;;5092983;28;20433;-69
2022/03/21 07:53:33;;;;;;;8.23;4.63;;;21.60;39.60;;;;;;5093617;28;20171;-68
2022/03/21 07:56:00;;;;;;;13.10;5.30;;;21.70;39.80;;;;;;5093514;28;20409;-70
2022/03/21 07:58:26;;;;;;;7.40;4.30;;;21.70;39.50;;;;;;5089907;28;20513;-67
2022/03/21 08:00:52;;;;;;;10.13;4.97;;;21.70;40.20;;;;;;5093717;28;20425;-67
2022/03/21 08:03:18;;;;;;;6.70;4.30;;;21.80;40.40;;;;;;5092717;28;20910;-68
2022/03/21 08:05:43;;;;;;;8.30;4.90;;;21.80;40.70;;;;;;5092547;28;20704;-67
2022/03/21 08:08:09;;;;;;;5.60;4.27;;;21.80;40.70;;;;;;5092014;28;20200;-67
2022/03/21 08:10:35;;;;;;;12.10;4.60;;;21.80;40.70;;;;;;5092025;28;20230;-68
2022/03/21 08:13:01;;;;;;;7.50;4.60;;;21.80;41.00;;;;;;5092245;28;20301;-68
2022/03/21 08:15:26;;;;;;;10.93;5.50;;;21.90;41.00;;;;;;5091926;28;20168;-68
2022/03/21 08:17:55;;;;;;;8.53;4.50;;;21.80;41.20;;;;;;5092340;28;20613;-68
2022/03/21 08:20:22;;;;;;;7.83;4.50;;;21.80;41.00;;;;;;5091548;28;20250;-68
2022/03/21 08:22:49;;;;;;;11.73;5.20;;;21.80;41.20;;;;;;5092457;28;20409;-69
2022/03/21 08:25:16;;;;;;;7.57;4.70;;;21.80;41.30;;;;;;5091636;28;20518;-68
2022/03/21 08:27:45;;;;;;;7.87;5.10;;;21.80;41.30;;;;;;5090767;28;20460;-68
2022/03/21 08:30:16;;;;;;;11.37;4.37;;;21.80;41.30;;;;;;5091295;28;20875;-68
2022/03/21 08:32:46;;;;;;;6.90;4.80;;;21.90;41.60;;;;;;5093520;28;20413;-67
2022/03/21 08:35:12;;;;;;;7.70;4.37;;;21.90;41.30;;;;;;5091363;28;20494;-67
2022/03/21 08:37:39;;;;;;;8.00;4.53;;;21.90;41.50;;;;;;5091970;28;20405;-68
2022/03/21 08:40:06;;;;;;;6.80;4.10;;;21.90;41.00;;;;;;5090331;28;20417;-67
2022/03/21 08:42:33;;;;;;;7.30;4.53;;;21.90;41.50;;;;;;5092750;28;20418;-68
2022/03/21 08:44:58;;;;;;;6.17;4.70;;;21.90;41.20;;;;;;5091159;28;20402;-68
2022/03/21 08:47:25;;;;;;;10.13;5.50;;;21.90;41.30;;;;;;5092323;28;20462;-70
2022/03/21 08:49:50;;;;;;;7.00;4.60;;;21.90;41.40;;;;;;5091023;28;20176;-68
2022/03/21 08:52:16;;;;;;;6.03;3.80;;;21.90;41.30;;;;;;5090637;28;20528;-69
2022/03/21 08:54:41;;;;;;;7.07;4.40;;;22.00;41.30;;;;;;5091538;28;20665;-68
2022/03/21 08:57:07;;;;;;;8.83;4.63;;;22.00;41.40;;;;;;5091080;28;20679;-68
2022/03/21 08:59:33;;;;;;;9.07;5.57;;;22.00;41.10;;;;;;5091147;28;20632;-68
2022/03/21 09:01:59;;;;;;;9.90;4.53;;;22.10;41.50;;;;;;5091061;28;20492;-68
2022/03/21 09:04:25;;;;;;;9.40;3.43;;;22.10;41.30;;;;;;5090967;28;20402;-68
2022/03/21 09:06:50;;;;;;;7.87;4.00;;;22.20;41.40;;;;;;5091509;28;20168;-68
2022/03/21 09:09:18;;;;;;;20.37;5.10;;;22.20;41.80;;;;;;5090240;28;20318;-68
2022/03/21 09:11:44;;;;;;;5.53;3.67;;;22.20;41.90;;;;;;5091362;28;20184;-68
2022/03/21 09:14:10;;;;;;;8.57;4.53;;;22.20;42.30;;;;;;5089136;28;20436;-68
2022/03/21 09:16:42;;;;;;;5.80;4.07;;;22.30;42.40;;;;;;5090731;28;20902;-67
2022/03/21 09:19:09;;;;;;;6.23;3.40;;;22.40;42.40;;;;;;5090095;28;20179;-67
2022/03/21 09:21:35;;;;;;;6.93;4.27;;;22.40;42.50;;;;;;5091044;28;20434;-69
2022/03/21 09:24:02;;;;;;;12.10;4.90;;;22.50;42.70;;;;;;5090737;28;20413;-68
2022/03/21 09:26:27;;;;;;;7.30;3.90;;;22.50;42.70;;;;;;5091092;28;20484;-68
2022/03/21 09:28:59;;;;;;;5.63;3.07;;;22.50;42.70;;;;;;5090292;28;20454;-70
2022/03/21 09:31:27;;;;;;;6.60;4.50;;;22.60;42.90;;;;;;5090485;28;20195;-70
2022/03/21 09:33:53;;;;;;;6.30;3.53;;;22.60;42.90;;;;;;5092244;28;20413;-68
2022/03/21 09:36:19;;;;;;;8.93;4.30;;;22.60;42.90;;;;;;5090199;28;20760;-67
2022/03/21 09:38:45;;;;;;;7.70;4.80;;;22.60;42.70;;;;;;5091095;28;20421;-68
2022/03/21 09:41:22;;;;;;;7.50;4.97;;;22.60;42.90;;;;;;5091335;28;20199;-68
2022/03/21 09:43:51;;;;;;;7.47;4.63;;;22.60;42.50;;;;;;5092264;28;20175;-68
2022/03/21 09:46:17;;;;;;;6.70;4.77;;;22.70;42.30;;;;;;5093117;28;20893;-68
2022/03/21 09:48:56;;;;;;;6.83;5.63;;;22.80;42.10;;;;;;5092758;28;20869;-69
2022/03/21 09:51:26;;;;;;;9.07;5.23;;;22.80;41.90;;;;;;5093126;28;20424;-69
2022/03/21 09:53:52;;;;;;;9.63;6.00;;;22.80;41.80;;;;;;5092667;28;20434;-68
2022/03/21 09:56:18;;;;;;;8.83;7.07;;;22.80;41.70;;;;;;5094257;28;20754;-69
2022/03/21 09:58:44;;;;;;;12.87;7.80;;;22.90;40.50;;;;;;5092588;28;20972;-69
2022/03/21 10:01:11;;;;;;;16.20;9.13;;;22.90;39.70;;;;;;5092536;28;20438;-68
2022/03/21 10:03:38;;;;;;;18.83;7.80;;;22.90;39.70;;;;;;5092913;28;20413;-68
2022/03/21 10:06:30;;;;;;;12.50;9.00;;;22.90;39.80;;;;;;5092340;28;20752;-69
2022/03/21 10:09:16;;;;;;;19.73;8.90;;;23.00;40.30;;;;;;5092347;28;20570;-67
2022/03/21 10:11:51;;;;;;;10.67;8.47;;;23.00;40.80;;;;;;5092625;28;20426;-68
2022/03/21 10:14:29;;;;;;;16.03;7.30;;;23.00;40.50;;;;;;5092632;28;20410;-68
2022/03/21 10:16:57;;;;;;;10.90;6.83;;;23.00;41.30;;;;;;5092712;28;20390;-68
2022/03/21 10:19:23;;;;;;;25.43;7.53;;;22.90;41.40;;;;;;5092193;28;20475;-68
2022/03/21 10:22:06;;;;;;;11.07;6.70;;;22.80;41.60;;;;;;5091336;28;20476;-68
2022/03/21 10:24:43;;;;;;;26.80;7.33;;;22.80;41.60;;;;;;5072159;28;20411;-68
2022/03/21 10:27:36;;;;;;;15.80;7.07;;;22.70;41.60;;;;;;5072020;28;20502;-69
2022/03/21 10:30:18;;;;;;;11.57;6.73;;;22.70;41.70;;;;;;5090523;28;20972;-68
2022/03/21 10:32:58;;;;;;;9.27;6.40;;;22.70;41.60;;;;;;5091845;28;20567;-68
2022/03/21 10:35:30;;;;;;;11.90;7.60;;;22.70;41.70;;;;;;5091794;28;20993;-68
2022/03/21 10:38:00;;;;;;;12.10;7.10;;;22.70;41.80;;;;;;5093109;28;20410;-69
2022/03/21 10:40:42;;;;;;;14.07;6.20;;;22.70;41.70;;;;;;5091812;28;20502;-69
2022/03/21 10:43:10;;;;;;;9.77;6.40;;;22.80;41.60;;;;;;5092247;28;20898;-68
2022/03/21 10:45:42;;;;;;;10.60;6.20;;;22.80;41.50;;;;;;5092014;28;20920;-68
2022/03/21 10:48:29;;;;;;;8.37;6.13;;;22.90;41.50;;;;;;5092068;28;20450;-69
2022/03/21 10:50:57;;;;;;;11.47;6.30;;;22.90;41.40;;;;;;5091862;28;20476;-69
2022/03/21 10:53:37;;;;;;;11.50;6.60;;;22.90;41.40;;;;;;5092022;28;20402;-68
2022/03/21 10:56:05;;;;;;;8.90;6.47;;;23.00;41.40;;;;;;5091944;28;20424;-69
2022/03/21 10:58:43;;;;;;;9.23;6.03;;;23.00;41.40;;;;;;5091726;28;20410;-68
2022/03/21 11:01:13;;;;;;;8.33;5.93;;;23.00;41.50;;;;;;5091594;28;20433;-69
2022/03/21 11:03:41;;;;;;;11.43;6.53;;;23.00;41.50;;;;;;5091876;28;20514;-68
2022/03/21 11:06:11;;;;;;;8.10;5.50;;;23.00;41.40;;;;;;5091688;28;20410;-69
2022/03/21 11:08:37;;;;;;;8.60;6.60;;;23.00;41.40;;;;;;5091274;28;20488;-69
2022/03/21 11:11:03;;;;;;;6.83;5.50;;;23.00;41.40;;;;;;5091667;28;20429;-69
2022/03/21 11:13:31;;;;;;;6.77;5.37;;;23.00;41.50;;;;;;5091801;28;20402;-69
2022/03/21 11:15:57;;;;;;;7.93;5.37;;;23.00;41.60;;;;;;5091627;28;20417;-69
2022/03/21 11:18:24;;;;;;;6.43;5.33;;;23.00;41.60;;;;;;5092077;28;20409;-68
2022/03/21 11:20:50;;;;;;;8.80;5.60;;;23.00;41.60;;;;;;5095628;28;20198;-69
2022/03/21 11:23:17;;;;;;;8.83;5.57;;;23.00;41.60;;;;;;5096046;28;20436;-68
2022/03/21 11:25:49;;;;;;;7.67;5.43;;;22.90;41.60;;;;;;5095899;28;20441;-68
2022/03/21 11:29:04;;;;;;;8.83;5.50;;;22.90;41.60;;;;;;5095937;28;20457;-69
2022/03/21 11:32:04;;;;;;;6.23;4.80;;;22.90;41.70;;;;;;5061030;28;20437;-69
2022/03/21 11:34:49;;;;;;;11.00;5.33;;;22.80;41.70;;;;;;5095838;28;20406;-69
2022/03/21 11:37:29;;;;;;;8.27;5.17;;;22.90;41.80;;;;;;5095604;28;20410;-69
2022/03/21 11:40:28;;;;;;;6.60;5.00;;;22.80;41.80;;;;;;5095132;28;20460;-70
2022/03/21 11:43:19;;;;;;;6.10;4.77;;;22.80;42.40;;;;;;5095681;28;20803;-70
2022/03/21 11:45:47;;;;;;;8.37;4.87;;;22.80;41.80;;;;;;5095396;28;20485;-70
2022/03/21 11:48:18;;;;;;;7.50;5.17;;;22.80;41.80;;;;;;5095432;28;20487;-70
2022/03/21 11:50:50;;;;;;;7.40;4.50;;;22.80;41.80;;;;;;5094962;28;20417;-70
2022/03/21 11:53:26;;;;;;;5.87;4.70;;;22.80;41.80;;;;;;5095310;28;20497;-70
2022/03/21 11:55:52;;;;;;;6.90;4.90;;;22.80;41.80;;;;;;5095252;28;21133;-69
2022/03/21 11:58:38;;;;;;;6.10;4.50;;;22.80;41.80;;;;;;5095128;28;20436;-68
2022/03/21 12:01:31;;;;;;;6.13;4.53;;;22.80;41.80;;;;;;5094866;28;20192;-69
2022/03/21 12:04:24;;;;;;;9.63;5.37;;;22.80;41.80;;;;;;5091025;28;20432;-68
2022/03/21 12:06:56;;;;;;;7.17;4.70;;;22.80;41.80;;;;;;5095127;28;20409;-69
2022/03/21 12:09:22;;;;;;;5.93;4.17;;;22.80;41.80;;;;;;5094624;28;20480;-69
2022/03/21 12:11:48;;;;;;;5.50;4.13;;;22.80;41.80;;;;;;5094970;28;20913;-69
2022/03/21 12:14:36;;;;;;;5.90;4.33;;;22.80;41.80;;;;;;5094976;28;20183;-69
2022/03/21 12:17:02;;;;;;;5.63;4.60;;;22.80;41.80;;;;;;5094896;28;20413;-69
2022/03/21 12:22:30;;;;;;;7.50;4.47;;;22.80;41.90;;;;;;5096289;28;20232;-69
2022/03/21 12:24:55;;;;;;;5.73;3.70;;;22.70;41.70;;;;;;5094930;28;20418;-69
2022/03/21 12:27:49;;;;;;;5.73;4.10;;;22.70;41.80;;;;;;5094684;28;20771;-69
2022/03/21 12:33:15;;;;;;;6.30;4.20;;;22.70;41.80;;;;;;5095997;28;20401;-69
2022/03/21 12:35:45;;;;;;;5.90;3.93;;;22.70;41.80;;;;;;5094738;28;20398;-69
2022/03/21 12:38:21;;;;;;;5.90;3.43;;;22.70;41.90;;;;;;5094814;28;20463;-69
2022/03/21 12:40:47;;;;;;;5.47;4.00;;;22.70;41.90;;;;;;5094229;28;20437;-69
2022/03/21 12:43:15;;;;;;;6.10;4.10;;;22.70;41.90;;;;;;5094424;28;20739;-70
2022/03/21 12:45:44;;;;;;;4.70;3.80;;;22.70;41.80;;;;;;5094275;28;20172;-70
2022/03/21 12:48:11;;;;;;;6.60;4.00;;;22.70;41.90;;;;;;5094321;28;20508;-70
2022/03/21 12:50:38;;;;;;;7.50;4.07;;;22.70;42.10;;;;;;5093877;28;20467;-70
2022/03/21 12:53:05;;;;;;;5.00;3.60;;;22.70;42.00;;;;;;5094160;28;20421;-70
2022/03/21 12:55:31;;;;;;;5.93;3.70;;;22.70;42.00;;;;;;5094177;28;20410;-71
2022/03/21 12:58:01;;;;;;;7.20;3.90;;;22.70;42.00;;;;;;5094148;28;20455;-69
2022/03/21 13:00:31;;;;;;;9.50;4.43;;;22.70;42.00;;;;;;5093655;28;20418;-69
2022/03/21 13:03:02;;;;;;;4.70;3.57;;;22.70;42.10;;;;;;5093874;28;20437;-69
2022/03/21 13:11:03;;;;;;;7.67;3.57;;;22.70;41.90;;;;;;5092181;28;20433;-69
2022/03/21 13:13:44;;;;;;;6.60;3.80;;;22.70;42.10;;;;;;5090976;28;20448;-69
2022/03/21 13:16:09;;;;;;;5.40;3.73;;;22.70;42.30;;;;;;5091684;28;20417;-68
2022/03/21 13:18:40;;;;;;;4.60;3.60;;;22.70;42.40;;;;;;5091204;28;20750;-69
2022/03/21 13:21:07;;;;;;;4.87;3.37;;;22.70;42.50;;;;;;5090565;28;20199;-69
2022/03/21 13:23:35;;;;;;;6.87;3.67;;;22.70;42.50;;;;;;5091492;28;20458;-69
2022/03/21 13:26:10;;;;;;;5.20;3.60;;;22.70;42.60;;;;;;5090786;28;20414;-69
2022/03/21 13:28:38;;;;;;;6.00;3.60;;;22.60;42.60;;;;;;5089774;28;20976;-68
2022/03/21 13:31:12;;;;;;;5.20;3.23;;;22.70;42.70;;;;;;5090354;28;20461;-69
2022/03/21 13:33:40;;;;;;;5.33;3.53;;;22.60;42.70;;;;;;5091031;28;21039;-68
2022/03/21 13:36:14;;;;;;;9.77;4.23;;;22.70;42.90;;;;;;5086799;28;20768;-67
2022/03/21 13:38:40;;;;;;;8.00;3.40;;;22.60;42.80;;;;;;5081274;28;20437;-68
2022/03/21 13:41:18;;;;;;;10.93;3.53;;;22.60;42.90;;;;;;5086211;28;20461;-68
2022/03/21 13:44:01;;;;;;;11.20;3.70;;;22.60;43.00;;;;;;5081715;28;20526;-68
2022/03/21 13:46:26;;;;;;;6.03;3.40;;;22.60;43.00;;;;;;5087762;28;20434;-68